Time;durP1;ratioP1;P1;durP2;ratioP2;P2;SDS_P1;SDS_P2;PMS_P1;PMS_P2;Temp;Humidity;BMP_temperature;BMP_pressure;BME280_temperature;BME280_humidity;BME280_pressure;Samples;Min_cycle;Max_cycle;Signal;HPM_P1;HPM_P2
2023/06/09 00:00:00;;;;;;;8.75;7.95;;;24.00;93.80;;;;;;5002639;28;20743;-39
2023/06/09 00:02:33;;;;;;;8.75;7.95;;;23.90;93.80;;;;;;5024263;28;20266;-39
2023/06/09 00:05:03;;;;;;;9.10;7.95;;;23.90;93.90;;;;;;5022090;28;20247;-39
2023/06/09 00:07:36;;;;;;;9.50;8.07;;;23.80;94.00;;;;;;5023048;28;20205;-39
2023/06/09 00:10:06;;;;;;;9.00;7.97;;;23.80;93.80;;;;;;5023656;28;20232;-39
2023/06/09 00:12:38;;;;;;;8.65;7.65;;;23.80;93.80;;;;;;5021784;28;20292;-39
2023/06/09 00:15:06;;;;;;;8.63;7.72;;;23.80;93.80;;;;;;5021989;28;20326;-39
2023/06/09 00:17:39;;;;;;;10.13;8.75;;;23.80;94.00;;;;;;5021433;28;20232;-39
2023/06/09 00:20:10;;;;;;;8.93;7.70;;;23.70;93.90;;;;;;5021032;28;20698;-39
2023/06/09 00:22:47;;;;;;;9.18;8.18;;;23.70;94.00;;;;;;5021810;28;20224;-39
2023/06/09 00:25:16;;;;;;;9.05;8.15;;;23.70;94.00;;;;;;5018841;28;20248;-39
2023/06/09 00:27:45;;;;;;;10.98;8.18;;;23.60;94.00;;;;;;5003898;28;20209;-39
2023/06/09 00:30:19;;;;;;;9.55;8.00;;;23.60;94.00;;;;;;5023878;28;20322;-35
2023/06/09 00:33:09;;;;;;;9.45;8.45;;;23.50;94.00;;;;;;5002368;28;20213;-35
2023/06/09 00:35:39;;;;;;;11.13;8.40;;;23.50;94.00;;;;;;5003189;28;20205;-39
2023/06/09 00:38:09;;;;;;;9.35;8.18;;;23.50;93.90;;;;;;5019165;28;20233;-39
2023/06/09 00:40:36;;;;;;;8.55;7.75;;;23.50;94.00;;;;;;5023077;28;20205;-39
2023/06/09 00:43:04;;;;;;;8.88;8.02;;;23.50;94.00;;;;;;5022850;28;20299;-40
2023/06/09 00:45:31;;;;;;;11.00;8.27;;;23.40;94.00;;;;;;5023121;28;20627;-40
2023/06/09 00:48:04;;;;;;;10.50;8.85;;;23.40;94.00;;;;;;5020871;28;20221;-39
2023/06/09 00:50:32;;;;;;;9.05;8.10;;;23.30;94.10;;;;;;5020880;28;20675;-39
2023/06/09 00:53:04;;;;;;;9.02;8.13;;;23.30;94.00;;;;;;5021227;28;20262;-39
2023/06/09 00:55:33;;;;;;;10.25;9.00;;;23.30;94.00;;;;;;5023134;28;20240;-39
2023/06/09 00:58:02;;;;;;;9.15;8.25;;;23.30;94.10;;;;;;5000718;28;20662;-39
2023/06/09 01:00:33;;;;;;;10.98;9.00;;;23.20;94.30;;;;;;5013920;28;20213;-39
2023/06/09 01:03:03;;;;;;;10.43;8.77;;;23.30;94.00;;;;;;5007012;28;20300;-38
2023/06/09 01:05:38;;;;;;;9.73;8.73;;;23.20;94.00;;;;;;5002259;28;20331;-39
2023/06/09 01:08:05;;;;;;;10.43;8.50;;;23.20;94.10;;;;;;4998131;28;20204;-39
2023/06/09 01:10:41;;;;;;;10.48;9.48;;;23.10;94.20;;;;;;5001411;28;20218;-39
2023/06/09 01:13:33;;;;;;;11.13;8.73;;;23.10;94.00;;;;;;5015487;28;20208;-39
2023/06/09 01:16:09;;;;;;;11.57;9.18;;;23.00;94.20;;;;;;5000986;28;20279;-39
2023/06/09 01:18:36;;;;;;;9.80;8.80;;;23.00;94.10;;;;;;5002567;28;20210;-39
2023/06/09 01:21:41;;;;;;;10.80;9.70;;;22.90;94.10;;;;;;5002698;28;20245;-39
2023/06/09 01:24:39;;;;;;;10.25;9.25;;;22.90;94.30;;;;;;5002712;28;20659;-39
2023/06/09 01:27:10;;;;;;;11.05;9.70;;;22.80;94.30;;;;;;5003818;28;20297;-39
2023/06/09 01:29:44;;;;;;;10.25;9.23;;;22.80;94.10;;;;;;5013020;28;20250;-39
2023/06/09 01:32:14;;;;;;;11.55;9.70;;;22.70;94.20;;;;;;5018491;28;20229;-39
2023/06/09 01:34:43;;;;;;;11.57;9.50;;;22.60;94.30;;;;;;5018964;28;20212;-39
2023/06/09 01:37:14;;;;;;;10.82;9.32;;;22.60;94.30;;;;;;5023039;28;20209;-39
2023/06/09 01:39:46;;;;;;;10.38;9.18;;;22.60;94.20;;;;;;5020722;28;20274;-39
2023/06/09 01:42:13;;;;;;;11.13;9.20;;;22.60;94.20;;;;;;5020260;28;20637;-40
2023/06/09 01:44:42;;;;;;;10.05;9.15;;;22.50;94.30;;;;;;5019328;28;20221;-39
2023/06/09 01:47:12;;;;;;;13.20;8.88;;;22.50;94.30;;;;;;5020427;28;20225;-40
2023/06/09 01:49:53;;;;;;;11.52;10.25;;;22.40;94.20;;;;;;5020549;28;20319;-40
2023/06/09 01:52:26;;;;;;;10.45;9.32;;;22.40;94.40;;;;;;5022610;28;20543;-39
2023/06/09 01:55:02;;;;;;;11.40;9.20;;;22.40;94.50;;;;;;5018562;28;20224;-39
2023/06/09 01:57:37;;;;;;;10.98;9.88;;;22.40;94.50;;;;;;5022363;28;20217;-39
2023/06/09 02:00:08;;;;;;;9.70;8.70;;;22.30;94.40;;;;;;5020685;28;20254;-39
2023/06/09 02:02:38;;;;;;;9.57;8.65;;;22.30;94.40;;;;;;5019915;28;20739;-39
2023/06/09 02:05:08;;;;;;;10.20;8.73;;;22.30;94.40;;;;;;5007808;28;20194;-39
2023/06/09 02:07:41;;;;;;;12.45;9.20;;;22.20;94.30;;;;;;5002607;28;20213;-39
2023/06/09 02:10:10;;;;;;;9.88;8.85;;;22.20;94.50;;;;;;5002277;28;20201;-39
2023/06/09 02:12:42;;;;;;;14.45;10.35;;;22.20;94.40;;;;;;5003196;28;20743;-38
2023/06/09 02:15:12;;;;;;;10.68;9.57;;;22.20;94.50;;;;;;5020317;28;20260;-39
2023/06/09 02:17:39;;;;;;;11.63;10.05;;;22.20;94.50;;;;;;5021642;28;20327;-39
2023/06/09 02:20:09;;;;;;;10.52;9.48;;;22.10;94.40;;;;;;5003247;28;20221;-39
2023/06/09 02:22:38;;;;;;;12.65;9.77;;;22.00;94.40;;;;;;5020451;28;20213;-38
2023/06/09 02:25:09;;;;;;;11.57;10.05;;;22.00;94.40;;;;;;5021236;28;20681;-39
2023/06/09 02:27:41;;;;;;;13.75;9.73;;;22.00;94.40;;;;;;5022135;28;20251;-39
2023/06/09 02:30:11;;;;;;;10.77;9.65;;;21.90;94.40;;;;;;5007760;28;20294;-40
2023/06/09 02:32:38;;;;;;;12.48;9.93;;;21.90;94.40;;;;;;5023412;28;20301;-39
2023/06/09 02:35:08;;;;;;;14.27;9.20;;;21.80;94.60;;;;;;5007569;28;20212;-39
2023/06/09 02:37:36;;;;;;;12.18;9.98;;;21.80;94.70;;;;;;5023992;28;20205;-38
2023/06/09 02:40:04;;;;;;;11.02;9.65;;;21.70;94.60;;;;;;5026078;28;20303;-39
2023/06/09 02:42:34;;;;;;;11.90;9.52;;;21.70;94.50;;;;;;5023543;28;20228;-39
2023/06/09 02:45:05;;;;;;;10.82;9.52;;;21.70;94.50;;;;;;5023099;28;20209;-39
2023/06/09 02:47:35;;;;;;;11.25;9.55;;;21.70;94.80;;;;;;5022856;28;20220;-39
2023/06/09 02:50:08;;;;;;;10.27;9.25;;;21.60;94.50;;;;;;5002960;28;20212;-39
2023/06/09 02:52:35;;;;;;;10.95;9.70;;;21.60;94.60;;;;;;5006078;28;20305;-39
2023/06/09 02:55:03;;;;;;;11.77;9.68;;;21.50;94.60;;;;;;5020754;28;20205;-35
2023/06/09 02:57:30;;;;;;;11.40;9.40;;;21.50;94.50;;;;;;5024255;28;20224;-34
2023/06/09 03:00:00;;;;;;;10.90;9.80;;;21.50;94.50;;;;;;5023653;28;20204;-34
2023/06/09 03:02:32;;;;;;;12.60;9.95;;;21.40;94.70;;;;;;5024249;28;20495;-34
2023/06/09 03:05:05;;;;;;;12.80;9.43;;;21.40;94.70;;;;;;5024032;28;20305;-35
2023/06/09 03:07:36;;;;;;;12.15;9.95;;;21.40;94.70;;;;;;5020321;28;20302;-34
2023/06/09 03:10:08;;;;;;;11.30;10.18;;;21.30;94.90;;;;;;5025130;28;20193;-34
2023/06/09 03:12:35;;;;;;;11.45;9.60;;;21.30;94.90;;;;;;5023803;28;21089;-34
2023/06/09 03:15:03;;;;;;;11.55;9.23;;;21.30;94.80;;;;;;5022214;28;20205;-34
2023/06/09 03:17:30;;;;;;;12.00;9.88;;;21.30;94.80;;;;;;5024728;28;20209;-34
2023/06/09 03:20:00;;;;;;;10.65;9.25;;;21.30;94.70;;;;;;5022815;28;20224;-34
2023/06/09 03:22:29;;;;;;;14.68;9.57;;;21.30;94.90;;;;;;5024926;28;20288;-34
2023/06/09 03:25:01;;;;;;;9.80;8.80;;;21.20;94.90;;;;;;5011848;28;20214;-34
2023/06/09 03:27:29;;;;;;;11.77;9.75;;;21.20;94.90;;;;;;5003165;28;20251;-34
2023/06/09 03:29:56;;;;;;;10.13;9.07;;;21.20;95.00;;;;;;5003411;28;20202;-35
2023/06/09 03:32:26;;;;;;;12.48;9.85;;;21.10;94.80;;;;;;5004837;28;20430;-34
2023/06/09 03:34:55;;;;;;;12.55;9.75;;;21.10;94.90;;;;;;5014562;28;20205;-34
2023/06/09 03:37:22;;;;;;;12.88;9.05;;;21.10;94.90;;;;;;5024464;28;20610;-34
2023/06/09 03:39:52;;;;;;;10.38;9.10;;;21.10;94.90;;;;;;5021646;28;20213;-34
2023/06/09 03:42:26;;;;;;;11.77;9.95;;;21.00;95.00;;;;;;5024222;28;20205;-34
2023/06/09 03:44:58;;;;;;;12.18;9.45;;;21.00;95.00;;;;;;5022666;28;20695;-34
2023/06/09 03:47:28;;;;;;;13.07;9.85;;;21.00;95.00;;;;;;5022475;28;20232;-34
2023/06/09 03:50:00;;;;;;;13.55;9.70;;;21.00;95.00;;;;;;5020833;28;20630;-34
2023/06/09 03:52:27;;;;;;;13.50;10.32;;;21.00;95.00;;;;;;5022591;28;20199;-34
2023/06/09 03:54:57;;;;;;;12.15;9.32;;;21.00;95.10;;;;;;5021774;28;20630;-34
2023/06/09 03:57:26;;;;;;;11.35;9.65;;;20.90;95.10;;;;;;5022522;28;20848;-34
2023/06/09 03:59:53;;;;;;;18.70;9.90;;;20.90;95.10;;;;;;5024246;28;20209;-34
2023/06/09 04:02:23;;;;;;;13.85;10.18;;;20.90;95.10;;;;;;5014140;28;20296;-34
2023/06/09 04:04:53;;;;;;;14.43;9.20;;;20.90;95.10;;;;;;5009941;28;20213;-34
2023/06/09 04:07:22;;;;;;;11.57;8.75;;;20.80;95.10;;;;;;5021962;28;20691;-34
2023/06/09 04:09:49;;;;;;;13.20;9.85;;;20.80;95.10;;;;;;5024215;28;20666;-34
2023/06/09 04:12:16;;;;;;;13.25;10.05;;;20.80;95.40;;;;;;5024051;28;20240;-34
2023/06/09 04:14:48;;;;;;;12.50;9.63;;;20.80;95.20;;;;;;5023636;28;20639;-34
2023/06/09 04:17:18;;;;;;;11.65;9.50;;;20.70;95.20;;;;;;5023067;28;20236;-35
2023/06/09 04:19:45;;;;;;;12.38;10.25;;;20.70;95.20;;;;;;5000363;28;20212;-34
2023/06/09 04:22:12;;;;;;;10.55;9.50;;;20.70;95.30;;;;;;5022281;28;20245;-34
2023/06/09 04:24:40;;;;;;;12.50;9.98;;;20.70;95.40;;;;;;5023434;28;20308;-34
2023/06/09 04:27:13;;;;;;;11.00;9.82;;;20.70;95.40;;;;;;5022237;28;20252;-34
2023/06/09 04:29:45;;;;;;;13.25;9.75;;;20.70;95.30;;;;;;5018999;28;20299;-34
2023/06/09 04:32:19;;;;;;;11.93;9.65;;;20.70;95.30;;;;;;4986969;28;20197;-34
2023/06/09 04:34:48;;;;;;;11.32;10.05;;;20.70;95.50;;;;;;5013939;28;20750;-34
2023/06/09 04:37:16;;;;;;;12.90;11.32;;;20.70;95.40;;;;;;5021815;28;20623;-34
2023/06/09 04:39:47;;;;;;;13.82;10.02;;;20.70;95.90;;;;;;5020819;28;20217;-34
2023/06/09 04:42:19;;;;;;;11.57;10.10;;;20.70;95.90;;;;;;5008080;28;20248;-34
2023/06/09 04:44:51;;;;;;;15.88;11.82;;;20.70;95.70;;;;;;5006946;28;20649;-34
2023/06/09 04:47:18;;;;;;;12.40;11.10;;;20.70;96.00;;;;;;5003730;28;20213;-34
2023/06/09 04:49:47;;;;;;;11.98;9.80;;;20.70;95.80;;;;;;5011098;28;20208;-34
2023/06/09 04:52:17;;;;;;;14.40;11.27;;;20.70;95.70;;;;;;5021960;28;20200;-34
2023/06/09 04:54:44;;;;;;;12.30;10.70;;;20.70;95.90;;;;;;5023040;28;20723;-34
2023/06/09 04:57:17;;;;;;;14.23;10.85;;;20.80;95.80;;;;;;5006300;28;20232;-34
2023/06/09 04:59:47;;;;;;;12.63;10.93;;;20.70;96.00;;;;;;5018010;28;20599;-34
2023/06/09 05:02:18;;;;;;;11.82;10.23;;;20.80;96.00;;;;;;5015933;28;20567;-34
2023/06/09 05:04:47;;;;;;;12.50;11.20;;;20.80;95.80;;;;;;5010924;28;20709;-34
2023/06/09 05:07:19;;;;;;;13.65;10.45;;;20.80;96.00;;;;;;4997431;28;20319;-37
2023/06/09 05:09:46;;;;;;;12.23;10.93;;;20.80;95.90;;;;;;5006454;28;20199;-38
2023/06/09 05:12:17;;;;;;;12.32;11.07;;;20.80;95.90;;;;;;5020890;28;21040;-38
2023/06/09 05:14:46;;;;;;;12.60;11.40;;;20.90;96.00;;;;;;5000791;28;20296;-38
2023/06/09 05:17:15;;;;;;;13.65;10.80;;;20.90;96.10;;;;;;5016034;28;20209;-35
2023/06/09 05:19:43;;;;;;;13.82;11.63;;;20.90;96.10;;;;;;5008563;28;20220;-34
2023/06/09 05:22:12;;;;;;;12.50;10.80;;;20.90;96.20;;;;;;5002345;28;20244;-34
2023/06/09 05:24:39;;;;;;;16.25;11.32;;;21.00;96.20;;;;;;5002978;28;20587;-34
2023/06/09 05:27:10;;;;;;;13.18;11.00;;;21.00;96.30;;;;;;5004879;28;20213;-34
2023/06/09 05:29:38;;;;;;;13.77;11.95;;;21.00;96.20;;;;;;5012015;28;20217;-34
2023/06/09 05:32:08;;;;;;;13.80;12.00;;;21.10;96.30;;;;;;5006178;28;20655;-34
2023/06/09 05:34:35;;;;;;;13.90;11.13;;;21.20;96.50;;;;;;5002423;28;20193;-34
2023/06/09 05:37:07;;;;;;;12.93;10.60;;;21.20;96.30;;;;;;5006401;28;20778;-34
2023/06/09 05:39:35;;;;;;;14.50;10.73;;;21.30;96.40;;;;;;5014652;28;20303;-34
2023/06/09 05:42:02;;;;;;;15.93;11.75;;;21.30;96.40;;;;;;5002582;28;20209;-39
2023/06/09 05:44:32;;;;;;;20.02;11.15;;;21.40;96.50;;;;;;5002262;28;20241;-38
2023/06/09 05:47:02;;;;;;;12.55;11.25;;;21.40;96.40;;;;;;5001378;28;20241;-38
2023/06/09 05:49:29;;;;;;;13.63;12.02;;;21.50;96.60;;;;;;5014829;28;20201;-39
2023/06/09 05:51:59;;;;;;;14.18;11.65;;;21.50;96.60;;;;;;5005223;28;20202;-39
2023/06/09 05:54:29;;;;;;;13.38;11.80;;;21.50;96.60;;;;;;5002191;28;20197;-38
2023/06/09 05:56:59;;;;;;;13.70;12.30;;;21.60;96.70;;;;;;5002658;28;20225;-38
2023/06/09 05:59:32;;;;;;;15.68;11.95;;;21.60;96.80;;;;;;5002259;28;20213;-38
2023/06/09 06:02:00;;;;;;;14.23;12.73;;;21.70;96.80;;;;;;5001163;28;20206;-38
2023/06/09 06:04:33;;;;;;;15.27;13.10;;;21.80;96.80;;;;;;4988247;28;20204;-38
2023/06/09 06:07:04;;;;;;;13.82;12.43;;;21.80;97.00;;;;;;5024321;28;20611;-38
2023/06/09 06:09:31;;;;;;;15.85;12.30;;;21.80;96.90;;;;;;5014964;28;20194;-38
2023/06/09 06:12:03;;;;;;;15.38;11.93;;;21.80;96.80;;;;;;5017410;28;20212;-39
2023/06/09 06:14:33;;;;;;;15.57;12.68;;;21.90;97.00;;;;;;5022818;28;20614;-38
2023/06/09 06:17:00;;;;;;;17.13;13.60;;;21.90;96.90;;;;;;5024702;28;20663;-38
2023/06/09 06:19:32;;;;;;;16.50;13.70;;;21.90;97.20;;;;;;5022731;28;20208;-38
2023/06/09 06:22:01;;;;;;;14.32;12.10;;;22.00;97.00;;;;;;5021096;28;20204;-38
2023/06/09 06:24:28;;;;;;;14.32;11.85;;;22.00;97.00;;;;;;5021653;28;20263;-34
2023/06/09 06:26:58;;;;;;;12.93;11.55;;;22.10;97.00;;;;;;5003691;28;20332;-34
2023/06/09 06:29:26;;;;;;;14.00;12.40;;;22.10;97.00;;;;;;5021274;28;20604;-37
2023/06/09 06:31:55;;;;;;;13.45;12.13;;;22.20;97.10;;;;;;5025423;28;20308;-34
2023/06/09 06:34:24;;;;;;;12.65;11.35;;;22.20;97.10;;;;;;4991750;28;20530;-34
2023/06/09 06:36:56;;;;;;;13.13;11.82;;;22.20;97.10;;;;;;5013912;28;20533;-34
2023/06/09 06:39:28;;;;;;;13.65;12.32;;;22.30;97.30;;;;;;5024071;28;20318;-34
2023/06/09 06:41:58;;;;;;;13.98;12.55;;;22.30;97.30;;;;;;5016400;28;20282;-34
2023/06/09 06:44:25;;;;;;;12.23;10.85;;;22.40;97.30;;;;;;5013874;28;20423;-34
2023/06/09 06:46:56;;;;;;;13.57;11.80;;;22.40;97.20;;;;;;5010423;28;20274;-34
2023/06/09 06:49:24;;;;;;;12.07;10.88;;;22.40;97.30;;;;;;5019519;28;20216;-34
2023/06/09 06:51:55;;;;;;;14.10;12.02;;;22.50;97.30;;;;;;5024055;28;20285;-34
2023/06/09 06:54:30;;;;;;;14.02;10.77;;;22.50;97.30;;;;;;5023719;28;20245;-34
2023/06/09 06:57:00;;;;;;;11.35;10.18;;;22.60;97.30;;;;;;5022868;28;20447;-38
2023/06/09 06:59:30;;;;;;;10.80;9.80;;;22.60;97.30;;;;;;5009007;28;20855;-38
2023/06/09 07:01:59;;;;;;;11.00;9.75;;;22.60;97.30;;;;;;5003711;28;20569;-38
2023/06/09 07:04:29;;;;;;;11.10;10.00;;;22.70;97.30;;;;;;5014629;28;20774;-38
2023/06/09 07:06:58;;;;;;;10.73;9.32;;;22.80;97.40;;;;;;5024615;28;20298;-39
2023/06/09 07:09:27;;;;;;;11.15;9.70;;;22.80;97.40;;;;;;5022886;28;20215;-39
2023/06/09 07:11:54;;;;;;;10.52;9.50;;;22.90;97.50;;;;;;5022972;28;20265;-38
2023/06/09 07:14:24;;;;;;;13.65;9.82;;;23.00;97.50;;;;;;5022469;28;20201;-38
2023/06/09 07:16:52;;;;;;;15.38;10.15;;;23.00;97.80;;;;;;5023453;28;20217;-38
2023/06/09 07:19:19;;;;;;;11.88;9.00;;;23.10;97.40;;;;;;5022383;28;20205;-39
2023/06/09 07:21:46;;;;;;;10.73;9.63;;;23.10;97.40;;;;;;5024081;28;20362;-38
2023/06/09 07:24:18;;;;;;;12.00;10.60;;;23.20;97.50;;;;;;5021972;28;20386;-39
2023/06/09 07:26:48;;;;;;;9.82;8.82;;;23.20;97.50;;;;;;5022974;28;20235;-39
2023/06/09 07:29:18;;;;;;;10.20;9.20;;;23.20;97.40;;;;;;5020869;28;20193;-38
2023/06/09 07:31:45;;;;;;;8.65;7.85;;;23.30;97.50;;;;;;5005378;28;20802;-38
2023/06/09 07:34:12;;;;;;;9.07;8.18;;;23.30;97.50;;;;;;5004094;28;20639;-38
2023/06/09 07:36:40;;;;;;;9.95;8.27;;;23.40;97.60;;;;;;5001935;28;20395;-39
2023/06/09 07:39:12;;;;;;;9.45;8.55;;;23.50;97.60;;;;;;5014516;28;20231;-39
2023/06/09 07:41:44;;;;;;;11.20;8.82;;;23.50;97.60;;;;;;5021491;28;20252;-39
2023/06/09 07:44:11;;;;;;;10.10;8.98;;;23.60;97.60;;;;;;5021914;28;20289;-39
2023/06/09 07:46:38;;;;;;;9.63;8.18;;;23.70;97.60;;;;;;5021538;28;20205;-39
2023/06/09 07:49:06;;;;;;;9.02;8.13;;;23.70;97.60;;;;;;5018111;28;20208;-39
2023/06/09 07:51:41;;;;;;;8.70;7.65;;;23.70;97.60;;;;;;5010470;28;20334;-39
2023/06/09 07:54:10;;;;;;;10.85;8.90;;;23.80;97.60;;;;;;5022483;28;20247;-39
2023/06/09 07:56:40;;;;;;;9.07;8.20;;;23.80;97.50;;;;;;5005439;28;20268;-39
2023/06/09 07:59:08;;;;;;;14.07;8.20;;;23.90;97.60;;;;;;5017489;28;20205;-39
2023/06/09 08:01:40;;;;;;;10.15;8.38;;;23.90;97.60;;;;;;5019976;28;20315;-39
2023/06/09 08:04:07;;;;;;;9.02;8.23;;;24.00;97.80;;;;;;5017685;28;20209;-39
2023/06/09 08:06:37;;;;;;;8.93;8.02;;;24.00;97.60;;;;;;5018033;28;20699;-39
2023/06/09 08:09:09;;;;;;;10.48;8.35;;;24.10;97.70;;;;;;5016011;28;20906;-39
2023/06/09 08:11:38;;;;;;;13.32;8.93;;;24.10;97.70;;;;;;5021625;28;20700;-39
2023/06/09 08:14:06;;;;;;;9.07;8.18;;;24.20;97.60;;;;;;5021442;28;20212;-39
2023/06/09 08:16:38;;;;;;;8.63;7.68;;;24.20;97.60;;;;;;5019264;28;20212;-39
2023/06/09 08:19:08;;;;;;;11.40;8.80;;;24.30;97.70;;;;;;5022767;28;20209;-38
2023/06/09 08:21:43;;;;;;;9.15;7.88;;;24.30;97.60;;;;;;5016452;28;20225;-38
2023/06/09 08:24:11;;;;;;;8.10;7.30;;;24.30;97.60;;;;;;5017554;28;20216;-38
2023/06/09 08:26:40;;;;;;;7.85;7.13;;;24.40;97.70;;;;;;5020746;28;20251;-38
2023/06/09 08:29:08;;;;;;;8.23;6.93;;;24.50;97.70;;;;;;5015033;28;20700;-38
2023/06/09 08:31:37;;;;;;;7.22;6.50;;;24.50;97.70;;;;;;5000720;28;20216;-34
2023/06/09 08:34:07;;;;;;;7.47;6.78;;;24.50;97.70;;;;;;5018954;28;20201;-34
2023/06/09 08:36:37;;;;;;;8.77;7.28;;;24.60;97.80;;;;;;5015709;28;20221;-34
2023/06/09 08:39:04;;;;;;;7.10;6.50;;;24.70;97.80;;;;;;5018284;28;20756;-34
2023/06/09 08:41:40;;;;;;;7.95;6.43;;;24.80;97.90;;;;;;5019425;28;20682;-34
2023/06/09 08:44:08;;;;;;;8.00;7.20;;;24.80;97.90;;;;;;5023115;28;20236;-34
2023/06/09 08:46:42;;;;;;;7.45;6.75;;;24.90;97.80;;;;;;5021352;28;20216;-34
2023/06/09 08:49:18;;;;;;;8.57;6.10;;;25.00;97.90;;;;;;5003102;28;20200;-34
2023/06/09 08:51:46;;;;;;;6.88;6.05;;;25.00;97.80;;;;;;5012933;28;20198;-34
2023/06/09 08:54:20;;;;;;;6.68;6.07;;;25.10;97.80;;;;;;5005591;28;20279;-34
2023/06/09 08:56:52;;;;;;;6.88;5.88;;;25.20;97.80;;;;;;5021151;28;20718;-34
2023/06/09 08:59:23;;;;;;;7.07;6.35;;;25.20;97.80;;;;;;5020118;28;20203;-34
2023/06/09 09:01:50;;;;;;;7.50;6.30;;;25.30;97.70;;;;;;5000497;28;20580;-34
2023/06/09 09:04:18;;;;;;;9.05;6.07;;;25.30;97.80;;;;;;5020032;28;20205;-34
2023/06/09 09:06:45;;;;;;;6.43;5.82;;;25.30;97.80;;;;;;5016916;28;20200;-34
2023/06/09 09:09:13;;;;;;;11.32;5.70;;;25.40;97.80;;;;;;5017103;28;20197;-34
2023/06/09 09:11:40;;;;;;;8.57;5.72;;;25.50;97.80;;;;;;4999945;28;20584;-34
2023/06/09 09:14:12;;;;;;;8.52;5.55;;;25.50;97.70;;;;;;5015636;28;20225;-34
2023/06/09 09:16:42;;;;;;;6.05;5.45;;;25.50;97.70;;;;;;5002687;28;20244;-34
2023/06/09 09:19:12;;;;;;;5.78;5.20;;;25.60;97.70;;;;;;4999393;28;20723;-34
2023/06/09 09:21:39;;;;;;;8.77;5.63;;;25.60;97.70;;;;;;5021234;28;20224;-34
2023/06/09 09:24:12;;;;;;;6.32;5.72;;;25.70;97.70;;;;;;5016352;28;20201;-34
2023/06/09 09:26:40;;;;;;;8.48;5.57;;;25.70;97.50;;;;;;5013261;28;20212;-34
2023/06/09 09:29:09;;;;;;;6.10;5.50;;;25.80;97.60;;;;;;5011231;28;20940;-34
2023/06/09 09:31:44;;;;;;;6.05;5.22;;;25.80;97.60;;;;;;5010626;28;20209;-35
2023/06/09 09:34:14;;;;;;;5.32;4.82;;;25.90;97.60;;;;;;5012598;28;20386;-34
2023/06/09 09:36:45;;;;;;;5.90;5.30;;;25.90;97.40;;;;;;5018685;28;21030;-35
2023/06/09 09:39:15;;;;;;;12.27;6.38;;;26.00;97.50;;;;;;5006709;28;20863;-34
2023/06/09 09:42:07;;;;;;;9.82;5.85;;;26.00;97.50;;;;;;4995199;28;20220;-35
2023/06/09 09:44:46;;;;;;;8.18;5.32;;;26.10;97.50;;;;;;5009472;28;20205;-35
2023/06/09 09:47:15;;;;;;;9.00;5.22;;;26.10;97.40;;;;;;5011406;28;20723;-34
2023/06/09 09:49:50;;;;;;;5.55;4.70;;;26.20;97.40;;;;;;5012259;28;20201;-34
2023/06/09 09:52:34;;;;;;;17.92;6.47;;;26.20;97.40;;;;;;5006730;28;20300;-35
2023/06/09 09:55:04;;;;;;;13.52;5.55;;;26.30;97.40;;;;;;5018691;28;20213;-34
2023/06/09 09:57:33;;;;;;;7.97;4.45;;;26.30;97.40;;;;;;5018145;28;20228;-34
2023/06/09 10:00:12;;;;;;;5.30;4.53;;;26.30;97.20;;;;;;5020958;28;20236;-35
2023/06/09 10:02:45;;;;;;;6.28;4.53;;;26.40;97.20;;;;;;5016060;28;20564;-34
2023/06/09 10:05:16;;;;;;;7.20;4.63;;;26.40;97.20;;;;;;5018083;28;20201;-35
2023/06/09 10:07:51;;;;;;;4.55;4.15;;;26.40;97.10;;;;;;5017412;28;20221;-35
2023/06/09 10:10:28;;;;;;;4.80;4.40;;;26.50;97.00;;;;;;5019060;28;20234;-35
2023/06/09 10:12:57;;;;;;;7.45;4.70;;;26.50;97.00;;;;;;5002684;28;20233;-35
2023/06/09 10:15:24;;;;;;;4.82;4.40;;;26.60;96.90;;;;;;5001212;28;20599;-34
2023/06/09 10:17:54;;;;;;;6.60;4.95;;;26.60;96.90;;;;;;4986706;28;20301;-35
2023/06/09 10:20:23;;;;;;;5.43;4.65;;;26.70;96.30;;;;;;5004385;28;20313;-34
2023/06/09 10:22:54;;;;;;;5.13;4.63;;;26.70;96.50;;;;;;5019886;28;20220;-34
2023/06/09 10:25:24;;;;;;;5.93;4.78;;;26.70;96.50;;;;;;5018316;28;20212;-35
2023/06/09 10:27:51;;;;;;;5.35;4.40;;;26.80;96.70;;;;;;5012016;28;20239;-35
2023/06/09 10:30:22;;;;;;;5.13;4.63;;;26.80;96.70;;;;;;5000349;28;20557;-35
2023/06/09 10:33:01;;;;;;;8.15;5.40;;;26.90;96.70;;;;;;5021444;28;20651;-35
2023/06/09 10:35:38;;;;;;;5.70;4.80;;;26.90;96.60;;;;;;5012577;28;20205;-35
2023/06/09 10:38:35;;;;;;;5.50;5.00;;;26.90;96.30;;;;;;5007675;28;20217;-35
2023/06/09 10:41:19;;;;;;;5.20;4.70;;;27.00;96.70;;;;;;5008711;28;20231;-35
2023/06/09 10:44:09;;;;;;;5.47;4.65;;;27.10;96.60;;;;;;5019896;28;20319;-35
2023/06/09 10:46:42;;;;;;;5.20;4.80;;;27.20;96.80;;;;;;5019966;28;20229;-34
2023/06/09 10:49:37;;;;;;;7.53;4.75;;;27.20;96.80;;;;;;5019860;28;20355;-35
2023/06/09 10:52:29;;;;;;;10.55;5.07;;;27.30;96.90;;;;;;5024764;28;20694;-34
2023/06/09 10:55:12;;;;;;;6.32;4.82;;;27.40;96.90;;;;;;5023548;28;20251;-34
2023/06/09 10:57:43;;;;;;;5.55;4.95;;;27.50;96.80;;;;;;4996130;28;20816;-35
2023/06/09 11:00:11;;;;;;;5.30;4.53;;;27.50;96.70;;;;;;5014192;28;20212;-34
2023/06/09 11:02:46;;;;;;;8.57;4.82;;;27.60;96.40;;;;;;5024427;28;20278;-35
2023/06/09 11:05:18;;;;;;;6.90;4.78;;;27.60;96.30;;;;;;5023292;28;20682;-34
2023/06/09 11:08:07;;;;;;;5.28;4.78;;;27.70;96.10;;;;;;5021013;28;20229;-34
2023/06/09 11:10:36;;;;;;;4.55;4.10;;;27.70;96.50;;;;;;5009373;28;20299;-34
2023/06/09 11:13:40;;;;;;;4.75;4.35;;;27.70;96.50;;;;;;5009100;28;20209;-34
2023/06/09 11:16:08;;;;;;;5.43;4.75;;;27.80;96.40;;;;;;5007533;28;20215;-34
2023/06/09 11:18:39;;;;;;;5.10;4.60;;;27.90;96.30;;;;;;5022475;28;20264;-39
2023/06/09 11:21:12;;;;;;;5.15;4.22;;;27.90;96.20;;;;;;5008232;28;20307;-39
2023/06/09 11:23:56;;;;;;;5.32;4.80;;;27.90;96.30;;;;;;5014560;28;20303;-39
2023/06/09 11:26:26;;;;;;;6.78;4.57;;;28.00;95.90;;;;;;5007365;28;20719;-39
2023/06/09 11:28:59;;;;;;;5.03;4.55;;;28.00;96.30;;;;;;4987095;28;20237;-39
2023/06/09 11:31:31;;;;;;;8.88;5.13;;;28.10;96.30;;;;;;5018635;28;20232;-39
2023/06/09 11:33:58;;;;;;;5.60;4.60;;;28.10;96.00;;;;;;5003450;28;20205;-39
2023/06/09 11:36:32;;;;;;;4.75;4.18;;;28.20;95.80;;;;;;5009052;28;20202;-39
2023/06/09 11:39:04;;;;;;;6.90;5.00;;;28.20;94.90;;;;;;5007505;28;20224;-39
2023/06/09 11:41:35;;;;;;;6.65;4.80;;;28.20;95.40;;;;;;5007489;28;20542;-41
2023/06/09 11:44:07;;;;;;;4.95;4.05;;;28.30;95.10;;;;;;5007100;28;20338;-39
2023/06/09 11:46:40;;;;;;;8.07;4.18;;;28.30;95.60;;;;;;5015905;28;20225;-39
2023/06/09 11:49:10;;;;;;;9.63;4.40;;;28.30;95.60;;;;;;5018431;28;20296;-39
2023/06/09 11:51:57;;;;;;;5.82;4.20;;;28.40;95.80;;;;;;5006408;28;20579;-39
2023/06/09 11:54:45;;;;;;;5.60;4.45;;;28.50;95.20;;;;;;5022944;28;20261;-39
2023/06/09 11:57:15;;;;;;;4.75;4.35;;;28.50;95.50;;;;;;5018729;28;20748;-39
2023/06/09 11:59:47;;;;;;;5.03;3.95;;;28.50;95.50;;;;;;5001965;28;20209;-39
2023/06/09 12:02:20;;;;;;;4.50;4.10;;;28.60;95.60;;;;;;5010349;28;20217;-39
2023/06/09 12:04:50;;;;;;;6.10;4.47;;;28.70;95.70;;;;;;5009390;28;20255;-39
2023/06/09 12:07:22;;;;;;;9.73;5.00;;;28.70;95.70;;;;;;5023388;28;20645;-39
2023/06/09 12:09:58;;;;;;;4.72;3.67;;;28.80;95.10;;;;;;5021386;28;20654;-38
2023/06/09 12:12:26;;;;;;;5.47;4.15;;;28.80;95.40;;;;;;5006942;28;20652;-39
2023/06/09 12:14:53;;;;;;;4.47;4.07;;;28.80;95.00;;;;;;5023973;28;20295;-38
2023/06/09 12:17:23;;;;;;;6.88;4.55;;;28.80;95.00;;;;;;5022219;28;20209;-38
2023/06/09 12:19:57;;;;;;;5.00;4.03;;;28.90;95.20;;;;;;5017694;28;20714;-39
2023/06/09 12:22:27;;;;;;;7.40;4.47;;;28.90;94.70;;;;;;5017368;28;22038;-41
2023/06/09 12:24:54;;;;;;;5.28;3.97;;;28.90;95.00;;;;;;5004180;28;20205;-39
2023/06/09 12:27:21;;;;;;;4.93;4.00;;;29.00;95.20;;;;;;5004897;28;20698;-39
2023/06/09 12:29:52;;;;;;;6.93;4.35;;;29.10;95.30;;;;;;5020158;28;20231;-39
2023/06/09 12:32:25;;;;;;;4.90;4.40;;;29.20;95.20;;;;;;5025067;28;20228;-39
2023/06/09 12:35:00;;;;;;;4.90;4.38;;;29.20;95.20;;;;;;5021339;28;20499;-38
2023/06/09 12:37:35;;;;;;;7.93;4.82;;;29.30;95.20;;;;;;5011328;28;20223;-39
2023/06/09 12:40:06;;;;;;;4.93;4.18;;;29.40;94.70;;;;;;5026336;28;20558;-34
2023/06/09 12:42:46;;;;;;;7.20;4.55;;;29.40;95.20;;;;;;5017149;28;20239;-39
2023/06/09 12:45:21;;;;;;;7.22;4.30;;;29.50;94.20;;;;;;5028165;28;20263;-39
2023/06/09 12:47:51;;;;;;;5.85;4.63;;;29.50;94.30;;;;;;5024320;28;20214;-39
2023/06/09 12:50:25;;;;;;;11.65;4.88;;;29.50;94.50;;;;;;5021770;28;20308;-39
2023/06/09 12:52:57;;;;;;;8.55;4.40;;;29.60;94.20;;;;;;5003042;28;20307;-40
2023/06/09 12:55:24;;;;;;;7.50;4.60;;;29.60;94.50;;;;;;5020499;28;20236;-39
2023/06/09 12:58:00;;;;;;;8.38;5.00;;;29.70;94.30;;;;;;5022740;28;20603;-39